createdAt,value
2018-12-24T00:02:03.834Z,99.80
2018-12-24T00:04:34.792Z,99.90
2018-12-24T00:07:05.528Z,99.90
2018-12-24T00:09:36.121Z,99.90
2018-12-24T00:12:07.447Z,99.90
2018-12-24T00:14:38.337Z,99.90
2018-12-24T00:17:08.784Z,99.90
2018-12-24T00:19:39.231Z,99.90
2018-12-24T00:22:09.697Z,99.90
2018-12-24T00:24:40.128Z,99.90
2018-12-24T00:27:10.599Z,99.90
2018-12-24T00:29:41.390Z,99.90
2018-12-24T00:32:12.478Z,99.90
2018-12-24T00:34:42.976Z,99.90
2018-12-24T00:37:13.708Z,99.90
2018-12-24T00:39:44.320Z,99.90
2018-12-24T00:42:15.974Z,99.90
2018-12-24T00:44:46.598Z,99.90
2018-12-24T00:47:17.020Z,99.70
2018-12-24T00:49:47.922Z,99.60
2018-12-24T00:52:18.370Z,99.60
2018-12-24T00:54:48.861Z,99.60
2018-12-24T00:57:19.304Z,99.60
2018-12-24T00:59:49.787Z,99.10
2018-12-24T01:02:20.609Z,97.80
2018-12-24T01:04:52.332Z,98.10
2018-12-24T01:07:23.077Z,97.50
2018-12-24T01:09:53.872Z,97.80
2018-12-24T01:12:24.969Z,97.50
2018-12-24T01:14:55.451Z,96.40
2018-12-24T01:17:26.256Z,95.70
2018-12-24T01:19:57.070Z,96.60
2018-12-24T01:22:27.908Z,96.60
2018-12-24T01:24:58.630Z,96.90
2018-12-24T01:27:29.079Z,97.20
2018-12-24T01:29:59.527Z,96.30
2018-12-24T01:32:29.999Z,96.10
2018-12-24T01:35:00.423Z,96.60
2018-12-24T01:37:30.871Z,96.70
2018-12-24T01:40:01.359Z,96.60
2018-12-24T01:42:33.467Z,97.00
2018-12-24T01:45:04.506Z,97.00
2018-12-24T01:47:34.927Z,97.00
2018-12-24T01:50:05.376Z,97.00
2018-12-24T01:52:35.800Z,97.10
2018-12-24T01:55:06.614Z,96.90
2018-12-24T01:57:37.062Z,96.80
2018-12-24T02:00:08.438Z,96.50
2018-12-24T02:02:38.857Z,97.00
2018-12-24T02:05:10.013Z,96.90
2018-12-24T02:07:40.453Z,96.70
2018-12-24T02:10:10.902Z,96.40
2018-12-24T02:12:42.368Z,95.90
2018-12-24T02:15:13.047Z,95.30
2018-12-24T02:17:43.925Z,95.80
2018-12-24T02:20:14.371Z,96.30
2018-12-24T02:22:44.865Z,96.20
2018-12-24T02:25:15.287Z,96.10
2018-12-24T02:27:45.704Z,96.10
2018-12-24T02:30:16.140Z,95.50
2018-12-24T02:32:46.563Z,95.50
2018-12-24T02:35:17.040Z,95.90
2018-12-24T02:37:47.845Z,96.20
2018-12-24T02:40:18.268Z,96.00
2018-12-24T02:42:52.472Z,96.30
2018-12-24T02:45:21.198Z,96.20
2018-12-24T02:47:52.041Z,96.40
2018-12-24T02:50:22.508Z,96.50
2018-12-24T02:52:53.333Z,95.90
2018-12-24T02:55:23.764Z,96.30
2018-12-24T02:57:54.628Z,96.40
2018-12-24T03:00:25.081Z,96.00
2018-12-24T03:02:56.337Z,96.00
2018-12-24T03:05:27.483Z,94.50
2018-12-24T03:07:58.314Z,94.50
2018-12-24T03:10:29.154Z,94.00
2018-12-24T03:13:02.701Z,94.60
2018-12-24T03:15:31.747Z,93.40
2018-12-24T03:18:02.507Z,93.50
2018-12-24T03:20:33.332Z,94.10
2018-12-24T03:23:04.155Z,94.20
2018-12-24T03:25:34.626Z,94.60
2018-12-24T03:28:05.097Z,95.00
2018-12-24T03:30:35.553Z,95.20
2018-12-24T03:33:06.407Z,95.20
2018-12-24T03:35:36.866Z,95.20
2018-12-24T03:38:07.320Z,95.20
2018-12-24T03:40:37.769Z,94.90
2018-12-24T03:43:12.896Z,94.90
2018-12-24T03:45:40.758Z,95.20
2018-12-24T03:48:11.459Z,95.20
2018-12-24T03:50:42.271Z,94.90
2018-12-24T03:53:13.418Z,95.30
2018-12-24T03:55:44.228Z,95.30
2018-12-24T03:58:15.058Z,96.20
2018-12-24T04:00:45.897Z,96.30
2018-12-24T04:03:16.668Z,96.20
2018-12-24T04:05:47.135Z,96.40
2018-12-24T04:08:17.938Z,96.50
2018-12-24T04:10:48.421Z,96.30
2018-12-24T04:13:22.690Z,96.10
2018-12-24T04:15:51.375Z,96.40
2018-12-24T04:18:21.825Z,96.60
2018-12-24T04:20:52.259Z,96.80
2018-12-24T04:23:23.091Z,96.80
2018-12-24T04:25:53.560Z,96.40
2018-12-24T04:28:23.987Z,96.40
2018-12-24T04:30:54.414Z,96.00
2018-12-24T04:33:25.121Z,96.20
2018-12-24T04:35:55.602Z,96.40
2018-12-24T04:38:26.418Z,95.90
2018-12-24T04:40:57.224Z,94.90
2018-12-24T04:43:32.197Z,94.20
2018-12-24T04:46:00.215Z,94.30
2018-12-24T04:48:30.636Z,93.10
2018-12-24T04:51:01.466Z,92.20
2018-12-24T04:53:32.475Z,91.50
2018-12-24T04:56:03.292Z,92.20
2018-12-24T04:58:34.494Z,92.40
2018-12-24T05:01:05.223Z,92.40
2018-12-24T05:03:36.052Z,92.70
2018-12-24T05:06:06.515Z,92.90
2018-12-24T05:08:36.949Z,92.90
2018-12-24T05:11:07.365Z,92.50
2018-12-24T05:13:41.073Z,91.80
2018-12-24T05:16:10.314Z,91.20
2018-12-24T05:18:40.762Z,92.40
2018-12-24T05:21:11.562Z,93.20
2018-12-24T05:23:41.984Z,93.20
2018-12-24T05:26:13.214Z,94.00
2018-12-24T05:28:44.431Z,93.30
2018-12-24T05:31:14.879Z,93.70
2018-12-24T05:33:45.327Z,93.70
2018-12-24T05:36:15.771Z,93.80
2018-12-24T05:38:46.216Z,94.00
2018-12-24T05:41:17.125Z,94.30
2018-12-24T05:43:49.577Z,94.60
2018-12-24T05:46:20.339Z,94.30
2018-12-24T05:48:51.034Z,94.30
2018-12-24T05:51:21.450Z,94.70
2018-12-24T05:53:51.899Z,94.10
2018-12-24T05:56:22.622Z,93.50
2018-12-24T05:58:53.465Z,93.20
2018-12-24T06:01:24.255Z,93.90
2018-12-24T06:03:55.095Z,92.60
2018-12-24T06:06:25.787Z,91.70
2018-12-24T06:08:56.858Z,91.90
2018-12-24T06:11:27.681Z,92.80
2018-12-24T06:13:58.381Z,92.70
2018-12-24T06:16:29.254Z,93.90
2018-12-24T06:19:00.041Z,94.50
2018-12-24T06:21:30.972Z,94.60
2018-12-24T06:24:02.691Z,94.60
2018-12-24T06:26:33.162Z,94.70
2018-12-24T06:29:04.105Z,93.10
2018-12-24T06:31:35.798Z,91.70
2018-12-24T06:34:06.578Z,90.80
2018-12-24T06:36:37.007Z,90.40
2018-12-24T06:39:08.081Z,88.00
2018-12-24T06:41:38.919Z,88.50
2018-12-24T06:44:09.612Z,90.00
2018-12-24T06:46:40.427Z,84.50
2018-12-24T06:49:10.913Z,85.50
2018-12-24T06:51:41.479Z,85.80
2018-12-24T06:54:11.916Z,87.50
2018-12-24T06:56:42.728Z,90.60
2018-12-24T06:59:13.167Z,90.50
2018-12-24T07:01:44.019Z,90.50
2018-12-24T07:04:14.495Z,90.60
2018-12-24T07:06:45.321Z,90.70
2018-12-24T07:09:16.207Z,91.70
2018-12-24T07:11:46.633Z,91.40
2018-12-24T07:14:17.615Z,90.60
2018-12-24T07:16:48.471Z,89.90
2018-12-24T07:19:19.617Z,90.20
2018-12-24T07:21:50.080Z,90.50
2018-12-24T07:24:20.497Z,90.50
2018-12-24T07:26:51.036Z,90.20
2018-12-24T07:29:21.729Z,89.60
2018-12-24T07:31:52.213Z,90.50
2018-12-24T07:34:32.144Z,90.20
2018-12-24T07:36:55.620Z,88.90
2018-12-24T07:39:26.725Z,86.70
2018-12-24T07:41:57.812Z,88.70
2018-12-24T07:44:28.634Z,86.70
2018-12-24T07:46:59.767Z,86.30
2018-12-24T07:49:30.607Z,85.20
2018-12-24T07:52:01.345Z,84.60
2018-12-24T07:54:31.763Z,81.10
2018-12-24T07:57:02.215Z,82.30
2018-12-24T07:59:32.949Z,80.50
2018-12-24T08:02:03.395Z,81.10
2018-12-24T08:04:33.851Z,81.90
2018-12-24T08:07:04.431Z,84.00
2018-12-24T08:09:34.899Z,85.80
2018-12-24T08:12:05.691Z,86.40
2018-12-24T08:14:36.419Z,89.30
2018-12-24T08:17:06.876Z,90.00
2018-12-24T08:19:37.323Z,90.30
2018-12-24T08:22:07.769Z,90.70
2018-12-24T08:24:38.184Z,90.80
2018-12-24T08:27:09.027Z,89.80
2018-12-24T08:29:39.586Z,87.20
2018-12-24T08:32:11.530Z,86.00
2018-12-24T08:34:42.070Z,74.90
2018-12-24T08:37:12.540Z,74.70
2018-12-24T08:39:43.331Z,73.10
2018-12-24T08:42:13.771Z,72.90
2018-12-24T08:44:44.548Z,71.00
2018-12-24T08:47:14.996Z,70.50
2018-12-24T08:49:45.820Z,68.40
2018-12-24T08:52:16.264Z,67.10
2018-12-24T08:54:49.283Z,69.30
2018-12-24T08:57:19.702Z,69.50
2018-12-24T08:59:50.175Z,69.80
2018-12-24T09:02:20.621Z,69.00
2018-12-24T09:04:51.093Z,71.20
2018-12-24T09:07:41.254Z,71.30
2018-12-24T09:10:25.229Z,70.10
2018-12-24T09:13:15.451Z,70.60
2018-12-24T09:15:58.399Z,72.10
2018-12-24T09:18:48.590Z,70.70
2018-12-24T09:21:32.147Z,69.20
2018-12-24T09:24:22.045Z,68.20
2018-12-24T09:27:04.922Z,69.40
2018-12-24T09:29:55.461Z,69.60
2018-12-24T09:32:45.450Z,69.80
2018-12-24T09:35:28.565Z,69.20
2018-12-24T09:38:18.445Z,70.10
2018-12-24T09:41:02.065Z,72.60
2018-12-24T09:47:16.511Z,72.00
2018-12-24T09:49:59.740Z,70.80
2018-12-24T09:52:49.651Z,71.20
2018-12-24T09:55:40.491Z,71.50
2018-12-24T09:58:21.572Z,70.10
2018-12-24T10:04:13.227Z,68.40
2018-12-24T10:10:39.345Z,67.70
2018-12-24T10:13:22.511Z,68.30
2018-12-24T10:16:12.390Z,66.90
2018-12-24T10:18:55.674Z,67.90
2018-12-24T10:24:53.569Z,66.90
2018-12-24T10:27:43.448Z,69.00
2018-12-24T10:30:26.495Z,69.60
2018-12-24T10:33:16.414Z,68.80
2018-12-24T10:35:59.409Z,67.40
2018-12-24T10:39:08.439Z,68.30
2018-12-24T10:41:51.181Z,67.30
2018-12-24T10:44:41.045Z,68.50
2018-12-24T10:47:24.160Z,65.90
2018-12-24T10:50:33.125Z,66.30
2018-12-24T10:53:15.895Z,67.40
2018-12-24T10:55:59.197Z,68.30
2018-12-24T10:58:42.126Z,67.10
2018-12-24T11:01:24.916Z,68.70
2018-12-24T11:07:16.234Z,63.90
2018-12-24T11:10:00.707Z,64.80
2018-12-24T11:12:50.590Z,66.20
2018-12-24T11:15:34.022Z,67.80
2018-12-24T11:18:23.911Z,72.10
2018-12-24T11:21:08.732Z,72.60
2018-12-24T11:23:58.606Z,72.90
2018-12-24T11:26:41.334Z,74.60
2018-12-24T11:29:31.515Z,76.40
2018-12-24T11:32:14.381Z,74.00
2018-12-24T11:35:04.482Z,73.00
2018-12-24T11:37:47.856Z,73.00
2018-12-24T11:40:37.821Z,73.10
2018-12-24T11:43:28.398Z,72.00
2018-12-24T11:46:18.716Z,73.10
2018-12-24T11:49:01.598Z,75.70
2018-12-24T11:51:51.753Z,75.40
2018-12-24T11:54:42.108Z,73.20
2018-12-24T11:57:26.892Z,74.70
2018-12-24T12:00:09.313Z,78.90
2018-12-24T12:02:59.491Z,78.00
2018-12-24T12:05:42.183Z,77.20
2018-12-24T12:08:12.618Z,77.80
2018-12-24T12:10:44.667Z,77.70
2018-12-24T12:16:43.800Z,70.60
2018-12-24T12:19:34.347Z,71.60
2018-12-24T12:22:18.609Z,69.70
2018-12-24T12:25:27.840Z,68.80
2018-12-24T12:28:10.721Z,66.40
2018-12-24T12:31:01.054Z,66.40
2018-12-24T12:33:51.019Z,65.00
2018-12-24T12:36:53.485Z,63.60
2018-12-24T12:39:43.652Z,65.50
2018-12-24T12:42:26.352Z,65.70
2018-12-24T12:45:16.479Z,65.50
2018-12-24T12:47:57.540Z,64.10
2018-12-24T12:54:09.810Z,65.70
2018-12-24T12:56:59.696Z,64.90
2018-12-24T12:59:42.870Z,65.20
2018-12-24T13:02:32.723Z,64.00
2018-12-24T13:05:22.928Z,63.70
2018-12-24T13:08:07.490Z,64.70
2018-12-24T13:10:57.678Z,62.30
2018-12-24T13:14:00.247Z,64.50
2018-12-24T13:16:50.350Z,63.80
2018-12-24T13:19:33.530Z,64.80
2018-12-24T13:22:23.743Z,64.00
2018-12-24T13:25:07.911Z,63.60
2018-12-24T13:27:58.196Z,62.80
2018-12-24T13:31:00.393Z,63.90
2018-12-24T13:34:09.385Z,60.90
2018-12-24T13:36:52.438Z,62.40
2018-12-24T13:39:42.350Z,62.90
2018-12-24T13:42:25.851Z,63.90
2018-12-24T13:45:15.742Z,64.60
2018-12-24T13:47:58.909Z,60.70
2018-12-24T13:50:49.368Z,63.30
2018-12-24T13:53:32.101Z,62.40
2018-12-24T13:56:22.788Z,60.70
2018-12-24T13:59:05.428Z,61.50
2018-12-24T14:01:55.310Z,60.60
2018-12-24T14:04:27.728Z,61.90
2018-12-24T14:06:58.180Z,62.20
2018-12-24T14:09:48.047Z,60.70
2018-12-24T14:12:18.750Z,62.60
2018-12-24T14:15:08.623Z,63.60
2018-12-24T14:17:51.757Z,64.30
2018-12-24T14:20:41.645Z,64.20
2018-12-24T14:23:24.814Z,63.10
2018-12-24T14:29:16.406Z,64.30
2018-12-24T14:31:59.079Z,64.00
2018-12-24T14:34:41.568Z,63.00
2018-12-24T14:40:46.389Z,62.80
2018-12-24T14:43:29.624Z,61.50
2018-12-24T14:46:25.620Z,61.50
2018-12-24T14:49:21.306Z,62.60
2018-12-24T14:52:04.742Z,61.70
2018-12-24T14:54:54.893Z,62.60
2018-12-24T14:57:39.232Z,62.80
2018-12-24T15:00:20.329Z,60.90
2018-12-24T15:03:03.121Z,62.00
2018-12-24T15:05:53.621Z,62.10
2018-12-24T15:08:36.179Z,63.50
2018-12-24T15:11:26.630Z,62.10
2018-12-24T15:14:09.348Z,62.10
2018-12-24T15:20:33.464Z,59.80
2018-12-24T15:23:15.778Z,61.80
2018-12-24T15:26:05.921Z,62.80
2018-12-24T15:28:49.530Z,63.10
2018-12-24T15:31:39.393Z,64.00
2018-12-24T15:34:22.193Z,64.40
2018-12-24T15:40:13.783Z,64.40
2018-12-24T15:42:54.675Z,64.50
2018-12-24T15:45:44.818Z,64.50
2018-12-24T15:48:28.921Z,65.90
2018-12-24T15:51:18.779Z,66.70
2018-12-24T15:54:08.962Z,67.00
2018-12-24T15:56:52.136Z,68.30
2018-12-24T15:59:35.182Z,68.20
2018-12-24T16:02:25.428Z,68.50
2018-12-24T16:05:08.279Z,68.30
2018-12-24T16:11:00.450Z,67.40
2018-12-24T16:13:50.670Z,68.20
2018-12-24T16:16:35.264Z,69.00
2018-12-24T16:22:51.887Z,68.40
2018-12-24T16:25:42.072Z,69.40
2018-12-24T16:28:32.262Z,70.30
2018-12-24T16:31:16.643Z,70.20
2018-12-24T16:34:06.831Z,70.60
2018-12-24T16:36:50.092Z,70.90
2018-12-24T16:42:39.789Z,72.50
2018-12-24T16:45:30.230Z,74.00
2018-12-24T16:48:13.398Z,73.90
2018-12-24T16:54:05.232Z,74.80
2018-12-24T16:56:55.719Z,75.20
2018-12-24T16:59:40.548Z,75.50
2018-12-24T17:02:21.475Z,76.20
2018-12-24T17:05:11.641Z,76.40
2018-12-24T17:07:55.248Z,77.40
2018-12-24T17:13:53.032Z,76.50
2018-12-24T17:19:44.570Z,76.90
2018-12-24T17:22:46.733Z,77.60
2018-12-24T17:25:36.624Z,78.10
2018-12-24T17:28:19.996Z,77.80
2018-12-24T17:31:10.246Z,78.10
2018-12-24T17:33:53.595Z,77.80
2018-12-24T17:36:43.750Z,78.70
2018-12-24T17:39:28.706Z,78.70
2018-12-24T17:42:18.674Z,78.40
2018-12-24T17:45:04.129Z,77.60
2018-12-24T17:47:54.461Z,77.80
2018-12-24T17:50:26.557Z,77.90
2018-12-24T17:53:16.430Z,77.90
2018-12-24T17:55:58.910Z,77.80
2018-12-24T17:59:07.876Z,76.80
2018-12-24T18:01:50.475Z,77.30
2018-12-24T18:04:33.505Z,77.50
2018-12-24T18:07:23.683Z,77.90
2018-12-24T18:10:06.247Z,78.10
2018-12-24T18:16:10.632Z,80.60
2018-12-24T18:18:53.839Z,81.70
2018-12-24T18:21:44.119Z,83.20
2018-12-24T18:24:47.053Z,84.70
2018-12-24T18:27:36.905Z,84.30
2018-12-24T18:30:19.761Z,85.40
2018-12-24T18:33:09.970Z,84.80
2018-12-24T18:35:50.797Z,84.80
2018-12-24T18:38:41.238Z,84.90
2018-12-24T18:41:24.483Z,84.40
2018-12-24T18:44:14.649Z,83.30
2018-12-24T18:46:57.362Z,83.30
2018-12-24T18:50:06.346Z,83.30
2018-12-24T18:52:47.440Z,83.30
2018-12-24T18:55:37.581Z,83.00
2018-12-24T18:58:22.158Z,81.40
2018-12-24T19:01:04.819Z,82.60
2018-12-24T19:04:13.778Z,82.40
2018-12-24T19:06:56.705Z,82.50
2018-12-24T19:10:05.957Z,83.30
2018-12-24T19:13:08.258Z,82.40
2018-12-24T19:15:58.462Z,82.20
2018-12-24T19:18:41.163Z,83.30
2018-12-24T19:21:31.329Z,82.10
2018-12-24T19:24:14.159Z,82.30
2018-12-24T19:27:04.686Z,83.40
2018-12-24T19:29:47.828Z,83.30
2018-12-24T19:32:56.839Z,83.40
2018-12-24T19:35:39.518Z,84.00
2018-12-24T19:38:29.394Z,84.50
2018-12-24T19:41:10.233Z,84.00
2018-12-24T19:44:00.111Z,83.90
2018-12-24T19:46:43.616Z,84.00
2018-12-24T19:49:33.822Z,84.00
2018-12-24T19:52:16.262Z,85.40
2018-12-24T19:58:32.518Z,85.40
2018-12-24T20:01:22.722Z,85.50
2018-12-24T20:04:12.624Z,85.10
2018-12-24T20:06:55.341Z,84.80
2018-12-24T20:10:04.583Z,85.00
2018-12-24T20:12:49.390Z,84.80
2018-12-24T20:15:39.269Z,84.70
2018-12-24T20:18:22.346Z,84.30
2018-12-24T20:21:12.212Z,85.10
2018-12-24T20:23:55.073Z,84.70
2018-12-24T20:26:45.246Z,84.30
2018-12-24T20:29:47.497Z,83.60
2018-12-24T20:32:56.496Z,84.80
2018-12-24T20:35:39.457Z,84.70
2018-12-24T20:38:48.741Z,84.80
2018-12-24T20:41:31.518Z,84.80
2018-12-24T20:44:21.764Z,85.70
2018-12-24T20:47:05.278Z,85.20
2018-12-24T20:49:55.414Z,85.10
2018-12-24T20:52:57.539Z,85.50
2018-12-24T20:55:47.435Z,85.40
2018-12-24T20:58:29.992Z,85.90
2018-12-24T21:01:20.246Z,85.80
2018-12-24T21:04:02.928Z,85.50
2018-12-24T21:06:53.152Z,85.30
2018-12-24T21:09:43.258Z,85.60
2018-12-24T21:12:13.744Z,85.90
2018-12-24T21:14:44.556Z,84.90
2018-12-24T21:17:15.026Z,85.40
2018-12-24T21:19:45.760Z,85.60
2018-12-24T21:22:16.587Z,86.00
2018-12-24T21:24:47.015Z,86.30
2018-12-24T21:27:17.934Z,86.50
2018-12-24T21:29:48.390Z,87.10
2018-12-24T21:32:18.866Z,86.60
2018-12-24T21:34:49.408Z,86.00
2018-12-24T21:37:20.206Z,86.60
2018-12-24T21:39:50.680Z,87.30
2018-12-24T21:42:21.108Z,86.20
2018-12-24T21:44:51.591Z,86.60
2018-12-24T21:47:22.051Z,86.90
2018-12-24T21:49:53.146Z,86.70
2018-12-24T21:52:23.865Z,87.10
2018-12-24T21:54:54.676Z,86.60
2018-12-24T21:57:25.873Z,86.80
2018-12-24T21:59:56.464Z,87.10
2018-12-24T22:02:26.932Z,87.10
2018-12-24T22:04:57.405Z,86.90
2018-12-24T22:07:27.845Z,87.10
2018-12-24T22:09:58.347Z,87.30
2018-12-24T22:12:28.807Z,87.00
2018-12-24T22:14:59.592Z,87.50
2018-12-24T22:17:30.326Z,87.60
2018-12-24T22:20:01.147Z,87.60
2018-12-24T22:22:31.613Z,87.80
2018-12-24T22:25:02.337Z,87.40
2018-12-24T22:27:33.464Z,87.50
2018-12-24T22:30:04.660Z,87.30
2018-12-24T22:32:35.111Z,87.50
2018-12-24T22:35:05.790Z,87.20
2018-12-24T22:37:36.555Z,87.40
2018-12-24T22:40:07.324Z,87.90
2018-12-24T22:42:37.753Z,87.60
2018-12-24T22:45:08.523Z,87.70
2018-12-24T22:47:39.675Z,87.90
2018-12-24T22:50:10.108Z,88.40
2018-12-24T22:52:41.237Z,88.50
2018-12-24T22:55:12.316Z,89.20
2018-12-24T22:57:42.885Z,88.60
2018-12-24T23:00:15.451Z,88.60
2018-12-24T23:02:46.333Z,88.20
2018-12-24T23:05:16.888Z,88.60
2018-12-24T23:07:47.317Z,89.00
2018-12-24T23:10:17.762Z,89.30
2018-12-24T23:12:48.715Z,89.10
2018-12-24T23:15:19.136Z,89.00
2018-12-24T23:17:49.916Z,89.10
2018-12-24T23:20:20.346Z,89.40
2018-12-24T23:22:51.503Z,89.90
2018-12-24T23:25:22.333Z,90.10
2018-12-24T23:27:53.155Z,90.20
2018-12-24T23:30:23.904Z,90.30
2018-12-24T23:32:55.052Z,90.40
2018-12-24T23:35:25.894Z,90.30
2018-12-24T23:37:56.348Z,90.40
2018-12-24T23:40:26.797Z,90.30
2018-12-24T23:42:58.711Z,90.20
2018-12-24T23:45:29.434Z,90.50
2018-12-24T23:48:00.212Z,90.40
2018-12-24T23:50:30.657Z,90.30
2018-12-24T23:53:01.098Z,90.30
2018-12-24T23:55:31.526Z,90.10
2018-12-24T23:58:02.333Z,89.90
